Time;durP1;ratioP1;P1;durP2;ratioP2;P2;SDS_P1;SDS_P2;PMS_P1;PMS_P2;Temp;Humidity;BMP_temperature;BMP_pressure;BME280_temperature;BME280_humidity;BME280_pressure;Samples;Min_cycle;Max_cycle;Signal;HPM_P1;HPM_P2
2023/05/24 00:01:36;;;;;;;19.77;11.80;;;13.90;99.90;;;;;;5019927;28;20206;-56
2023/05/24 00:04:02;;;;;;;15.53;11.60;;;13.90;99.90;;;;;;5022552;28;22145;-58
2023/05/24 00:06:28;;;;;;;15.30;10.43;;;13.90;99.90;;;;;;5021845;28;20560;-55
2023/05/24 00:08:54;;;;;;;14.80;11.40;;;13.90;99.90;;;;;;5022898;28;20207;-55
2023/05/24 00:11:21;;;;;;;16.03;11.67;;;13.90;99.90;;;;;;5017028;28;20549;-56
2023/05/24 00:13:47;;;;;;;17.60;11.00;;;13.90;99.90;;;;;;5017215;28;20450;-55
2023/05/24 00:16:13;;;;;;;16.53;11.50;;;13.90;99.90;;;;;;5020373;28;20805;-57
2023/05/24 00:18:39;;;;;;;14.40;10.00;;;13.90;99.90;;;;;;5019227;28;20470;-56
2023/05/24 00:21:07;;;;;;;12.83;9.67;;;13.90;99.90;;;;;;5016471;28;20849;-53
2023/05/24 00:23:33;;;;;;;16.63;10.83;;;13.90;99.90;;;;;;5025644;28;20458;-57
2023/05/24 00:26:00;;;;;;;15.00;10.40;;;13.80;99.90;;;;;;5025272;28;20426;-54
2023/05/24 00:28:26;;;;;;;16.40;10.80;;;13.90;99.90;;;;;;5023839;28;20431;-56
2023/05/24 00:30:52;;;;;;;15.37;10.83;;;13.80;99.90;;;;;;5019642;28;20512;-55
2023/05/24 00:33:17;;;;;;;21.60;11.53;;;13.90;99.90;;;;;;5021660;28;20462;-52
2023/05/24 00:35:43;;;;;;;12.30;9.70;;;13.80;99.90;;;;;;5023267;28;20179;-54
2023/05/24 00:38:08;;;;;;;15.60;9.90;;;13.80;99.90;;;;;;5021787;28;20503;-55
2023/05/24 00:40:34;;;;;;;13.77;9.70;;;13.80;99.90;;;;;;5018740;28;20187;-53
2023/05/24 00:43:00;;;;;;;16.63;10.10;;;13.80;99.90;;;;;;5025822;28;20227;-57
2023/05/24 00:45:25;;;;;;;15.53;9.90;;;13.80;99.90;;;;;;5024722;28;20191;-56
2023/05/24 00:47:51;;;;;;;14.80;10.03;;;13.80;99.90;;;;;;5021309;28;20184;-55
2023/05/24 00:50:17;;;;;;;21.53;10.13;;;13.80;99.90;;;;;;5023580;28;20621;-56
2023/05/24 00:52:43;;;;;;;13.43;9.23;;;13.80;99.90;;;;;;5024009;28;22031;-55
2023/05/24 00:55:09;;;;;;;14.40;9.87;;;13.80;99.90;;;;;;5023888;28;20426;-56
2023/05/24 00:57:35;;;;;;;13.07;9.47;;;13.80;99.90;;;;;;5022105;28;21033;-55
2023/05/24 01:00:06;;;;;;;12.77;9.27;;;13.70;99.90;;;;;;5022698;28;20593;-56
2023/05/24 01:02:32;;;;;;;15.83;9.83;;;13.70;99.90;;;;;;5020201;28;20442;-56
2023/05/24 01:04:58;;;;;;;11.83;8.47;;;13.70;99.90;;;;;;5019926;28;21163;-55
2023/05/24 01:07:36;;;;;;;13.10;9.70;;;13.70;99.90;;;;;;5019598;28;20175;-56
2023/05/24 01:10:22;;;;;;;11.60;8.90;;;13.70;99.90;;;;;;5022556;28;20640;-55
2023/05/24 01:13:03;;;;;;;16.03;9.50;;;13.70;99.90;;;;;;5017239;28;20516;-56
2023/05/24 01:15:43;;;;;;;22.60;10.57;;;13.70;99.90;;;;;;5015401;28;20422;-56
2023/05/24 01:18:30;;;;;;;13.10;9.30;;;13.70;99.90;;;;;;5017799;28;20463;-55
2023/05/24 01:21:11;;;;;;;15.67;9.47;;;13.70;99.90;;;;;;5018999;28;20571;-55
2023/05/24 01:23:42;;;;;;;15.50;9.80;;;13.70;99.90;;;;;;5018005;28;20458;-57
2023/05/24 01:26:39;;;;;;;14.00;10.17;;;13.70;99.90;;;;;;5019943;28;20419;-56
2023/05/24 01:29:05;;;;;;;16.20;10.33;;;13.70;99.90;;;;;;5019538;28;20449;-55
2023/05/24 01:31:32;;;;;;;16.47;10.10;;;13.70;99.90;;;;;;5023609;28;20437;-55
2023/05/24 01:33:57;;;;;;;16.63;9.40;;;13.70;99.90;;;;;;5020601;28;20453;-55
2023/05/24 01:36:23;;;;;;;13.73;9.97;;;13.70;99.90;;;;;;5016649;28;20974;-55
2023/05/24 01:38:49;;;;;;;17.30;9.90;;;13.60;99.90;;;;;;5018015;28;20230;-56
2023/05/24 01:41:18;;;;;;;16.27;9.50;;;13.60;99.90;;;;;;5020149;28;20200;-56
2023/05/24 01:43:55;;;;;;;12.20;8.80;;;13.50;99.90;;;;;;5016747;28;20495;-55
2023/05/24 01:46:26;;;;;;;13.83;9.37;;;13.40;99.90;;;;;;5017496;28;20458;-55
2023/05/24 01:49:03;;;;;;;15.97;10.03;;;13.50;99.90;;;;;;5015446;28;20441;-56
2023/05/24 01:51:37;;;;;;;12.57;8.90;;;13.40;99.90;;;;;;5016414;28;20426;-55
2023/05/24 01:54:05;;;;;;;13.33;9.00;;;13.40;99.90;;;;;;5018751;28;21135;-57
2023/05/24 01:56:31;;;;;;;11.80;8.20;;;13.50;99.90;;;;;;5015243;28;20529;-54
2023/05/24 01:58:58;;;;;;;12.77;9.40;;;13.50;99.90;;;;;;5014643;28;20520;-56
2023/05/24 02:01:25;;;;;;;14.73;10.13;;;13.50;99.90;;;;;;5014371;28;20458;-55
2023/05/24 02:03:51;;;;;;;13.03;8.70;;;13.50;99.90;;;;;;5015664;28;20446;-55
2023/05/24 02:06:16;;;;;;;11.83;9.00;;;13.50;99.90;;;;;;5021921;28;20769;-55
2023/05/24 02:08:42;;;;;;;12.87;8.33;;;13.40;99.90;;;;;;5017468;28;20434;-57
2023/05/24 02:11:08;;;;;;;11.03;8.23;;;13.50;99.90;;;;;;5017162;28;20184;-56
2023/05/24 02:13:33;;;;;;;10.63;8.77;;;13.50;99.90;;;;;;5019255;28;20210;-56
2023/05/24 02:15:59;;;;;;;12.77;8.00;;;13.50;99.90;;;;;;5011865;28;20184;-55
2023/05/24 02:18:24;;;;;;;15.07;9.70;;;13.40;99.90;;;;;;5020917;28;20219;-56
2023/05/24 02:20:50;;;;;;;15.50;9.67;;;13.40;99.90;;;;;;5020088;28;20552;-56
2023/05/24 02:23:16;;;;;;;13.17;9.00;;;13.40;99.90;;;;;;5014528;28;20202;-55
2023/05/24 02:25:41;;;;;;;13.80;9.77;;;13.40;99.90;;;;;;5017418;28;20188;-56
2023/05/24 02:28:07;;;;;;;14.40;9.07;;;13.40;99.90;;;;;;5019858;28;20188;-55
2023/05/24 02:30:33;;;;;;;12.23;8.23;;;13.40;99.90;;;;;;5020394;28;20195;-56
2023/05/24 02:32:59;;;;;;;10.80;8.30;;;13.40;99.90;;;;;;5018724;28;20677;-54
2023/05/24 02:35:25;;;;;;;9.17;7.90;;;13.40;99.90;;;;;;5015284;28;20799;-56
2023/05/24 02:37:51;;;;;;;12.00;8.03;;;13.40;99.90;;;;;;5022379;28;20576;-56
2023/05/24 02:40:16;;;;;;;8.53;7.17;;;13.40;99.90;;;;;;5021601;28;20434;-56
2023/05/24 02:42:42;;;;;;;11.53;8.43;;;13.40;99.90;;;;;;5012826;28;20208;-55
2023/05/24 02:45:08;;;;;;;10.87;8.33;;;13.40;99.90;;;;;;5015716;28;20569;-54
2023/05/24 02:47:33;;;;;;;11.90;7.67;;;13.30;99.90;;;;;;5026841;28;20525;-55
2023/05/24 02:49:59;;;;;;;10.43;7.30;;;13.30;99.90;;;;;;5023868;28;20453;-56
2023/05/24 02:52:25;;;;;;;8.93;6.77;;;13.30;99.90;;;;;;5023469;28;20616;-54
2023/05/24 02:54:51;;;;;;;11.43;8.00;;;13.30;99.90;;;;;;5014711;28;20176;-56
2023/05/24 02:57:17;;;;;;;10.10;7.33;;;13.30;99.90;;;;;;5021196;28;20275;-57
2023/05/24 02:59:42;;;;;;;9.80;6.90;;;13.20;99.90;;;;;;5013719;28;20834;-55
2023/05/24 03:02:08;;;;;;;8.83;6.97;;;13.20;99.90;;;;;;5023490;28;20199;-54
2023/05/24 03:04:34;;;;;;;12.57;7.83;;;13.20;99.90;;;;;;5016029;28;20172;-56
2023/05/24 03:07:00;;;;;;;12.13;7.03;;;13.20;99.90;;;;;;5022574;28;20192;-55
2023/05/24 03:09:26;;;;;;;10.13;7.77;;;13.20;99.90;;;;;;5018276;28;20792;-55
2023/05/24 03:11:53;;;;;;;10.20;6.97;;;13.20;99.90;;;;;;5017017;28;20458;-57
2023/05/24 03:14:21;;;;;;;8.63;7.63;;;13.20;99.90;;;;;;5021595;28;20465;-56
2023/05/24 03:16:47;;;;;;;7.73;6.60;;;13.10;99.90;;;;;;5026667;28;20429;-55
2023/05/24 03:19:13;;;;;;;13.03;8.30;;;13.10;99.90;;;;;;5022102;28;20860;-55
2023/05/24 03:21:39;;;;;;;12.20;7.80;;;13.10;99.90;;;;;;5024028;28;20445;-56
2023/05/24 03:24:05;;;;;;;9.53;8.20;;;13.10;99.90;;;;;;5024119;28;20283;-56
2023/05/24 03:26:30;;;;;;;14.13;7.50;;;13.10;99.90;;;;;;5025240;28;20179;-56
2023/05/24 03:28:56;;;;;;;10.80;7.33;;;13.10;99.90;;;;;;5021512;28;20443;-55
2023/05/24 03:31:25;;;;;;;10.80;7.73;;;13.10;99.90;;;;;;5018329;28;20187;-54
2023/05/24 03:33:51;;;;;;;13.03;8.70;;;13.10;99.90;;;;;;5027995;28;20204;-55
2023/05/24 03:36:16;;;;;;;16.50;8.60;;;13.10;99.90;;;;;;5023254;28;20431;-55
2023/05/24 03:38:42;;;;;;;15.20;9.33;;;13.10;99.90;;;;;;5024979;28;20467;-55
2023/05/24 03:41:08;;;;;;;20.83;9.67;;;13.00;99.90;;;;;;5022584;28;20182;-55
2023/05/24 03:43:33;;;;;;;14.27;9.83;;;13.00;99.90;;;;;;5018671;28;20200;-55
2023/05/24 03:45:59;;;;;;;16.77;9.53;;;13.00;99.90;;;;;;5023460;28;20200;-56
2023/05/24 03:48:24;;;;;;;16.20;10.10;;;13.00;99.90;;;;;;5025674;28;20183;-56
2023/05/24 03:50:50;;;;;;;10.47;8.30;;;13.00;99.90;;;;;;5019909;28;20184;-56
2023/05/24 03:53:16;;;;;;;11.87;8.43;;;13.00;99.90;;;;;;5022158;28;20208;-55
2023/05/24 03:55:41;;;;;;;9.53;7.90;;;12.90;99.90;;;;;;5017069;28;20731;-56
2023/05/24 03:58:07;;;;;;;11.67;8.50;;;12.90;99.90;;;;;;5024704;28;20195;-53
2023/05/24 04:00:32;;;;;;;10.70;8.70;;;12.90;99.90;;;;;;5022720;28;20665;-55
2023/05/24 04:02:59;;;;;;;10.47;8.00;;;12.90;99.90;;;;;;5025891;28;20215;-57
2023/05/24 04:05:28;;;;;;;12.70;8.27;;;12.80;99.90;;;;;;5020823;28;20231;-57
2023/05/24 04:07:54;;;;;;;11.90;9.67;;;12.80;99.90;;;;;;5017951;28;20427;-56
2023/05/24 04:10:20;;;;;;;11.53;8.50;;;12.80;99.90;;;;;;5021252;28;20492;-57
2023/05/24 04:12:45;;;;;;;11.53;8.07;;;12.80;99.90;;;;;;5025703;28;20534;-56
2023/05/24 04:15:14;;;;;;;11.40;8.10;;;12.80;99.90;;;;;;5020426;28;20241;-55
2023/05/24 04:17:44;;;;;;;10.27;8.70;;;12.70;99.90;;;;;;5018844;28;20238;-55
2023/05/24 04:20:10;;;;;;;12.80;8.47;;;12.70;99.90;;;;;;5023094;28;20740;-55
2023/05/24 04:22:36;;;;;;;12.17;7.60;;;12.70;99.90;;;;;;5015597;28;20451;-57
2023/05/24 04:25:05;;;;;;;12.33;8.03;;;12.70;99.90;;;;;;5021802;28;20419;-59
2023/05/24 04:27:31;;;;;;;11.70;8.57;;;12.70;99.90;;;;;;5015923;28;20272;-55
2023/05/24 04:29:56;;;;;;;11.23;8.33;;;12.80;99.90;;;;;;5010201;28;20883;-55
2023/05/24 04:32:22;;;;;;;10.63;8.60;;;12.80;99.90;;;;;;5020080;28;20468;-54
2023/05/24 04:34:49;;;;;;;9.17;7.50;;;12.80;99.90;;;;;;5025066;28;20176;-55
2023/05/24 04:37:16;;;;;;;11.73;8.40;;;12.80;99.90;;;;;;5022023;28;20168;-55
2023/05/24 04:39:43;;;;;;;11.17;8.30;;;12.80;99.90;;;;;;5011730;28;20462;-55
2023/05/24 04:42:08;;;;;;;13.07;8.93;;;12.80;99.90;;;;;;5022497;28;20446;-55
2023/05/24 04:44:34;;;;;;;12.20;8.10;;;12.80;99.90;;;;;;5018013;28;20443;-56
2023/05/24 04:47:02;;;;;;;10.63;7.17;;;12.80;99.90;;;;;;5021948;28;20705;-58
2023/05/24 04:49:28;;;;;;;14.57;8.00;;;12.80;99.90;;;;;;5020897;28;20282;-57
2023/05/24 04:51:53;;;;;;;13.43;8.87;;;12.80;99.90;;;;;;5017605;28;20517;-57
2023/05/24 04:54:19;;;;;;;11.53;8.57;;;12.80;99.90;;;;;;5022439;28;20958;-57
2023/05/24 04:56:45;;;;;;;11.60;8.93;;;12.80;99.90;;;;;;5020776;28;20535;-58
2023/05/24 04:59:10;;;;;;;13.00;8.13;;;12.70;99.90;;;;;;5022311;28;20672;-58
2023/05/24 05:01:36;;;;;;;10.50;7.40;;;12.70;99.90;;;;;;5040835;22;20234;-64
2023/05/24 05:04:06;;;;;;;15.30;8.50;;;12.70;99.90;;;;;;5042668;28;20170;-63
2023/05/24 05:06:33;;;;;;;12.80;8.30;;;12.70;99.90;;;;;;5036358;28;20577;-63
2023/05/24 05:08:59;;;;;;;14.67;8.23;;;12.70;99.90;;;;;;5035600;28;20425;-63
2023/05/24 05:11:26;;;;;;;12.30;7.67;;;12.70;99.90;;;;;;5030266;28;20467;-63
2023/05/24 05:13:53;;;;;;;11.20;8.30;;;12.70;99.90;;;;;;5017738;28;22287;-63
2023/05/24 05:16:19;;;;;;;13.40;8.40;;;12.70;99.90;;;;;;5038175;28;20431;-63
2023/05/24 05:18:44;;;;;;;11.43;8.50;;;12.70;99.90;;;;;;5019299;28;20510;-63
2023/05/24 05:21:10;;;;;;;15.30;8.67;;;12.70;99.90;;;;;;5022410;28;20549;-63
2023/05/24 05:23:38;;;;;;;9.20;7.77;;;12.70;99.90;;;;;;5018195;28;20183;-63
2023/05/24 05:26:05;;;;;;;14.27;8.00;;;12.70;99.90;;;;;;5018794;28;20172;-63
2023/05/24 05:28:31;;;;;;;13.90;8.77;;;12.70;99.90;;;;;;5023322;28;20426;-63
2023/05/24 05:30:57;;;;;;;13.30;8.33;;;12.70;99.90;;;;;;5015343;28;20611;-64
2023/05/24 05:33:23;;;;;;;10.10;7.83;;;12.70;99.90;;;;;;5021718;28;20176;-63
2023/05/24 05:35:48;;;;;;;10.47;7.87;;;12.70;99.90;;;;;;5023047;28;20430;-63
2023/05/24 05:38:14;;;;;;;12.47;8.97;;;12.70;99.90;;;;;;5020828;28;20192;-64
2023/05/24 05:40:39;;;;;;;12.07;7.60;;;12.70;99.90;;;;;;5022617;28;20199;-63
2023/05/24 05:43:07;;;;;;;12.60;8.10;;;12.80;99.90;;;;;;5020473;28;20881;-60
2023/05/24 05:45:32;;;;;;;11.23;7.83;;;12.80;99.90;;;;;;5018981;28;20187;-64
2023/05/24 05:47:58;;;;;;;12.80;8.60;;;12.80;99.90;;;;;;5022589;28;21269;-62
2023/05/24 05:50:24;;;;;;;14.93;8.33;;;12.90;99.90;;;;;;5017491;28;21312;-64
2023/05/24 05:52:49;;;;;;;10.40;7.57;;;12.90;99.90;;;;;;5016005;28;20294;-63
2023/05/24 05:55:15;;;;;;;10.43;7.33;;;12.90;99.90;;;;;;5020792;28;20179;-64
2023/05/24 05:57:41;;;;;;;14.40;7.60;;;13.00;99.90;;;;;;5021850;28;20183;-63
2023/05/24 06:00:08;;;;;;;11.70;7.87;;;13.10;99.90;;;;;;5016680;28;20250;-62
2023/05/24 06:02:34;;;;;;;11.20;8.20;;;13.10;99.90;;;;;;5019870;28;20465;-63
2023/05/24 06:04:59;;;;;;;12.43;7.20;;;13.10;99.90;;;;;;5015970;28;20801;-63
2023/05/24 06:07:25;;;;;;;11.30;7.10;;;13.10;99.90;;;;;;5017977;28;20660;-64
2023/05/24 06:09:51;;;;;;;14.10;7.53;;;13.10;99.90;;;;;;5018584;28;20653;-63
2023/05/24 06:12:16;;;;;;;17.30;7.27;;;13.10;99.90;;;;;;5019770;28;20202;-63
2023/05/24 06:14:42;;;;;;;10.93;7.37;;;13.10;99.90;;;;;;5017326;28;20780;-63
2023/05/24 06:17:08;;;;;;;8.83;7.10;;;13.10;99.90;;;;;;5017405;28;20199;-64
2023/05/24 06:19:33;;;;;;;8.53;6.37;;;13.10;99.80;;;;;;5013994;28;20196;-64
2023/05/24 06:22:00;;;;;;;14.33;6.80;;;13.10;99.70;;;;;;5015714;28;20457;-62
2023/05/24 06:24:27;;;;;;;8.90;6.33;;;13.10;99.90;;;;;;5018549;28;20779;-62
2023/05/24 06:26:53;;;;;;;16.33;7.03;;;13.10;99.90;;;;;;5021754;28;21003;-62
2023/05/24 06:29:20;;;;;;;12.93;6.37;;;13.10;99.90;;;;;;5014294;28;20553;-64
2023/05/24 06:31:46;;;;;;;7.70;6.00;;;13.00;99.90;;;;;;5017406;28;20288;-63
2023/05/24 06:34:17;;;;;;;10.97;6.50;;;13.00;99.90;;;;;;5013958;28;20446;-63
2023/05/24 06:36:46;;;;;;;10.23;5.93;;;13.00;99.90;;;;;;5017301;28;20495;-62
2023/05/24 06:39:15;;;;;;;11.40;7.50;;;13.00;99.90;;;;;;5017390;28;20996;-63
2023/05/24 06:41:44;;;;;;;14.73;6.63;;;13.00;99.90;;;;;;5016622;28;20474;-63
2023/05/24 06:44:10;;;;;;;20.73;6.70;;;13.00;99.90;;;;;;5019550;28;20439;-63
2023/05/24 06:46:36;;;;;;;9.57;6.53;;;13.10;98.40;;;;;;5020863;28;20442;-63
2023/05/24 06:49:02;;;;;;;10.33;6.77;;;13.10;98.20;;;;;;5015858;28;20245;-62
2023/05/24 06:51:28;;;;;;;11.20;6.07;;;13.10;97.80;;;;;;5022159;28;20203;-63
2023/05/24 06:53:53;;;;;;;8.97;6.30;;;13.20;97.80;;;;;;5019864;28;20184;-64
2023/05/24 06:56:19;;;;;;;12.13;7.17;;;13.30;97.10;;;;;;5018690;28;20217;-64
2023/05/24 06:58:44;;;;;;;13.10;6.40;;;13.30;97.10;;;;;;5021217;28;20210;-63
2023/05/24 07:01:10;;;;;;;7.93;6.07;;;13.40;97.30;;;;;;5024767;28;20214;-63
2023/05/24 07:03:36;;;;;;;8.00;6.13;;;13.40;96.90;;;;;;5022235;28;20553;-63
2023/05/24 07:06:02;;;;;;;12.63;6.60;;;13.50;95.80;;;;;;5020200;28;20672;-63
2023/05/24 07:08:28;;;;;;;10.60;6.33;;;13.50;94.40;;;;;;5021045;28;20219;-63
2023/05/24 07:10:54;;;;;;;10.03;6.50;;;13.40;94.20;;;;;;5009053;28;20743;-62
2023/05/24 07:13:20;;;;;;;14.70;6.93;;;13.40;94.00;;;;;;5016517;28;20237;-62
2023/05/24 07:15:46;;;;;;;11.77;5.93;;;13.40;94.20;;;;;;5009488;28;20564;-63
2023/05/24 07:18:13;;;;;;;9.03;6.37;;;13.40;93.40;;;;;;5024056;28;20469;-64
2023/05/24 07:20:38;;;;;;;13.40;6.87;;;13.40;94.10;;;;;;5014377;28;20565;-63
2023/05/24 07:23:05;;;;;;;13.60;6.77;;;13.40;91.90;;;;;;5017374;28;20530;-62
2023/05/24 07:25:32;;;;;;;13.03;6.80;;;13.40;92.00;;;;;;5017081;28;20173;-63
2023/05/24 07:27:58;;;;;;;13.83;6.97;;;13.40;93.40;;;;;;5016730;28;21142;-63
2023/05/24 07:30:24;;;;;;;9.77;6.10;;;13.40;93.50;;;;;;5025264;28;21015;-63
2023/05/24 07:32:50;;;;;;;8.07;6.13;;;13.40;93.70;;;;;;5018497;28;20453;-64
2023/05/24 07:35:16;;;;;;;10.90;7.17;;;13.40;93.40;;;;;;5021353;28;20191;-63
2023/05/24 07:37:42;;;;;;;9.87;6.63;;;13.40;92.10;;;;;;5016615;28;20188;-63
2023/05/24 07:40:11;;;;;;;14.40;7.03;;;13.40;92.10;;;;;;5019797;28;20430;-63
2023/05/24 07:42:37;;;;;;;16.57;6.67;;;13.40;92.00;;;;;;5017727;28;20203;-64
2023/05/24 07:45:07;;;;;;;7.27;6.03;;;13.30;92.50;;;;;;5020522;28;20887;-62
2023/05/24 07:47:33;;;;;;;14.30;6.90;;;13.40;91.80;;;;;;5024935;28;20439;-64
2023/05/24 07:49:59;;;;;;;11.47;6.80;;;13.40;93.80;;;;;;5019201;28;20449;-63
2023/05/24 07:52:25;;;;;;;12.20;6.90;;;13.50;95.40;;;;;;5026479;28;21045;-64
2023/05/24 07:54:51;;;;;;;10.33;6.90;;;13.50;95.20;;;;;;5018200;28;20192;-63
2023/05/24 07:57:19;;;;;;;9.90;6.63;;;13.50;94.60;;;;;;5019333;28;20434;-64
2023/05/24 07:59:45;;;;;;;13.30;7.10;;;13.50;92.70;;;;;;5022718;28;21153;-64
2023/05/24 08:02:15;;;;;;;11.17;6.27;;;13.50;91.90;;;;;;5018772;28;20465;-64
2023/05/24 08:04:41;;;;;;;11.03;6.67;;;13.50;92.00;;;;;;5020265;28;20656;-63
2023/05/24 08:07:07;;;;;;;11.10;6.30;;;13.60;91.40;;;;;;5017636;28;20457;-56
2023/05/24 08:09:34;;;;;;;12.80;7.13;;;13.60;90.10;;;;;;5015066;28;20508;-59
2023/05/24 08:12:03;;;;;;;11.60;7.17;;;13.60;86.20;;;;;;5010344;28;20210;-60
2023/05/24 08:14:29;;;;;;;12.93;6.70;;;13.60;90.30;;;;;;5021410;28;20446;-63
2023/05/24 08:16:55;;;;;;;16.63;7.30;;;13.60;89.00;;;;;;5014299;28;20445;-63
2023/05/24 08:19:21;;;;;;;12.10;6.60;;;13.60;84.30;;;;;;5021751;28;20238;-63
2023/05/24 08:21:46;;;;;;;12.77;5.83;;;13.60;86.90;;;;;;5021392;28;20254;-62
2023/05/24 08:24:12;;;;;;;11.53;6.13;;;13.60;86.20;;;;;;5023372;28;20232;-62
2023/05/24 08:26:38;;;;;;;10.40;6.07;;;13.70;88.20;;;;;;5024186;28;20184;-62
2023/05/24 08:29:03;;;;;;;11.50;6.50;;;13.70;88.90;;;;;;5020520;28;20250;-62
2023/05/24 08:31:32;;;;;;;10.40;6.53;;;13.60;88.20;;;;;;5019170;28;20216;-63
2023/05/24 08:33:58;;;;;;;12.63;5.67;;;13.60;88.70;;;;;;5015505;28;20246;-61
2023/05/24 08:36:24;;;;;;;11.10;6.60;;;13.60;89.40;;;;;;5016572;28;20434;-62
2023/05/24 08:38:49;;;;;;;14.23;6.83;;;13.70;89.20;;;;;;5018487;28;21124;-62
2023/05/24 08:41:15;;;;;;;9.40;5.90;;;13.80;88.60;;;;;;5013969;28;20231;-62
2023/05/24 08:43:42;;;;;;;11.47;6.63;;;13.90;88.60;;;;;;5017508;28;20302;-62
2023/05/24 08:46:09;;;;;;;13.57;6.70;;;14.10;85.10;;;;;;5015966;28;20184;-62
2023/05/24 08:48:45;;;;;;;12.77;7.23;;;14.20;83.60;;;;;;5021015;28;20434;-61
2023/05/24 08:51:13;;;;;;;12.03;6.77;;;14.30;82.30;;;;;;5019402;28;20463;-62
2023/05/24 08:53:40;;;;;;;10.77;6.17;;;14.40;79.90;;;;;;5017595;28;20927;-62
2023/05/24 08:56:08;;;;;;;10.73;6.13;;;14.60;78.80;;;;;;5017204;28;20441;-63
2023/05/24 08:58:35;;;;;;;13.87;6.37;;;14.70;76.90;;;;;;5019431;28;20469;-60
2023/05/24 09:01:02;;;;;;;12.43;6.00;;;14.70;74.70;;;;;;5018127;28;20463;-63
2023/05/24 09:03:29;;;;;;;9.00;5.90;;;14.70;72.70;;;;;;5012505;28;20906;-60
2023/05/24 09:05:55;;;;;;;15.37;7.10;;;14.70;70.90;;;;;;5018444;28;20334;-64
2023/05/24 09:08:21;;;;;;;11.97;6.57;;;14.70;72.00;;;;;;5010923;28;20514;-63
2023/05/24 09:10:47;;;;;;;11.40;6.80;;;14.60;71.70;;;;;;5018974;28;20195;-63
2023/05/24 09:13:14;;;;;;;11.70;7.20;;;14.60;72.90;;;;;;5015888;28;20192;-63
2023/05/24 09:15:40;;;;;;;7.70;6.10;;;14.50;73.90;;;;;;5019427;28;20191;-64
2023/05/24 09:18:05;;;;;;;10.10;6.10;;;14.50;74.80;;;;;;5018695;28;20457;-64
2023/05/24 09:20:31;;;;;;;9.17;6.77;;;14.50;77.30;;;;;;5016984;28;20624;-64
2023/05/24 09:23:00;;;;;;;10.47;6.23;;;14.50;78.10;;;;;;5015839;28;20217;-61
2023/05/24 09:25:28;;;;;;;9.33;5.90;;;14.50;79.60;;;;;;5020185;28;20829;-65
2023/05/24 09:27:55;;;;;;;9.60;6.90;;;14.50;77.90;;;;;;5014451;28;20431;-63
2023/05/24 09:30:21;;;;;;;16.07;7.10;;;14.40;76.50;;;;;;5015795;28;20437;-65
2023/05/24 09:32:59;;;;;;;12.07;6.90;;;14.40;76.00;;;;;;5019975;28;20446;-63
2023/05/24 09:35:28;;;;;;;12.43;7.00;;;14.30;76.30;;;;;;5033438;28;20564;-63
2023/05/24 09:37:56;;;;;;;9.20;5.87;;;14.20;75.80;;;;;;5016182;28;20581;-63
2023/05/24 09:40:22;;;;;;;11.77;6.20;;;14.20;75.40;;;;;;5015758;28;20523;-62
2023/05/24 09:43:00;;;;;;;10.70;6.60;;;14.10;76.10;;;;;;5014591;28;20451;-62
2023/05/24 09:45:27;;;;;;;10.93;6.27;;;14.00;75.80;;;;;;5020706;28;20438;-62
2023/05/24 09:47:53;;;;;;;9.13;7.00;;;14.00;77.60;;;;;;5015299;28;20564;-63
2023/05/24 09:50:18;;;;;;;8.87;6.37;;;13.90;75.80;;;;;;5020020;28;20457;-62
2023/05/24 09:52:44;;;;;;;17.03;8.30;;;13.90;75.50;;;;;;5021017;28;20249;-63
2023/05/24 09:55:18;;;;;;;12.97;7.67;;;13.90;75.20;;;;;;5020619;28;20173;-64
2023/05/24 09:57:49;;;;;;;12.53;7.17;;;13.90;76.00;;;;;;5016669;28;20230;-64
2023/05/24 10:00:20;;;;;;;8.67;6.10;;;13.90;78.30;;;;;;5019410;28;20997;-63
2023/05/24 10:03:01;;;;;;;14.20;6.40;;;13.90;80.20;;;;;;5019216;28;20454;-59
2023/05/24 10:05:27;;;;;;;15.03;5.70;;;13.90;80.60;;;;;;5011407;28;20427;-65
2023/05/24 10:07:54;;;;;;;12.90;6.53;;;13.90;82.30;;;;;;5020087;28;20971;-63
2023/05/24 10:10:20;;;;;;;10.80;6.03;;;14.00;79.10;;;;;;5020286;28;21127;-63
2023/05/24 10:12:47;;;;;;;11.63;6.70;;;14.00;79.00;;;;;;5016598;28;20802;-63
2023/05/24 10:15:12;;;;;;;14.30;7.40;;;14.00;76.20;;;;;;5020193;28;20435;-61
2023/05/24 10:17:38;;;;;;;14.13;7.00;;;14.00;76.40;;;;;;5014349;28;20453;-63
2023/05/24 10:20:05;;;;;;;16.03;7.17;;;14.00;74.60;;;;;;5018512;28;20294;-63
2023/05/24 10:22:36;;;;;;;18.43;7.70;;;14.00;75.20;;;;;;5013439;28;20226;-62
2023/05/24 10:25:05;;;;;;;10.17;6.70;;;14.00;73.80;;;;;;5019251;28;20900;-64
2023/05/24 10:27:32;;;;;;;16.80;7.10;;;14.00;73.10;;;;;;5017874;28;20804;-63
2023/05/24 10:30:14;;;;;;;13.87;7.30;;;13.90;73.50;;;;;;5011780;28;20480;-64
2023/05/24 10:32:42;;;;;;;15.33;6.83;;;13.90;73.90;;;;;;5014564;28;20460;-62
2023/05/24 10:35:11;;;;;;;14.33;7.03;;;13.90;74.40;;;;;;5019914;28;20492;-62
2023/05/24 10:37:37;;;;;;;17.20;7.43;;;13.80;74.60;;;;;;5016169;28;20816;-63
2023/05/24 10:40:05;;;;;;;12.80;6.80;;;13.80;73.60;;;;;;5018318;28;21030;-63
2023/05/24 10:42:31;;;;;;;13.33;6.67;;;13.80;73.60;;;;;;5021480;28;20665;-62
2023/05/24 10:44:57;;;;;;;14.80;6.60;;;13.80;73.70;;;;;;5019477;28;20435;-63
2023/05/24 10:47:27;;;;;;;11.23;6.47;;;13.80;72.30;;;;;;5016939;28;20172;-64
2023/05/24 10:50:03;;;;;;;14.37;6.80;;;13.80;73.60;;;;;;5021026;28;20182;-63
2023/05/24 10:52:36;;;;;;;19.50;7.63;;;13.80;74.40;;;;;;5015436;28;20454;-62
2023/05/24 10:55:07;;;;;;;14.20;6.43;;;13.80;73.80;;;;;;5020372;28;20834;-63
2023/05/24 10:57:33;;;;;;;15.00;7.33;;;13.80;73.90;;;;;;5019782;28;20765;-62
2023/05/24 11:00:26;;;;;;;17.50;6.97;;;13.80;73.40;;;;;;5014545;28;20459;-63
2023/05/24 11:03:00;;;;;;;12.70;6.27;;;13.80;71.40;;;;;;5016216;28;20470;-62
2023/05/24 11:05:33;;;;;;;13.13;6.70;;;13.80;71.00;;;;;;5020612;28;20449;-62
2023/05/24 11:08:00;;;;;;;14.10;6.07;;;13.80;71.90;;;;;;5011476;28;20478;-63
2023/05/24 11:10:32;;;;;;;18.57;6.90;;;13.80;71.90;;;;;;5018302;28;20979;-62
2023/05/24 11:13:01;;;;;;;11.90;6.73;;;13.80;71.20;;;;;;5016810;28;20807;-61
2023/05/24 11:15:28;;;;;;;9.30;6.13;;;13.70;70.90;;;;;;5016617;28;20430;-60
2023/05/24 11:18:11;;;;;;;12.63;6.40;;;13.70;70.80;;;;;;5015386;28;20470;-55
2023/05/24 11:20:37;;;;;;;14.63;6.37;;;13.70;72.00;;;;;;5017978;28;20438;-58
2023/05/24 11:23:05;;;;;;;14.83;6.70;;;13.80;75.20;;;;;;5013567;28;20459;-61
2023/05/24 11:25:32;;;;;;;15.37;7.20;;;13.90;73.80;;;;;;5013745;28;20439;-60
2023/05/24 11:27:59;;;;;;;11.70;6.40;;;14.00;72.60;;;;;;5016325;28;20476;-57
2023/05/24 11:30:25;;;;;;;16.10;5.73;;;14.00;70.40;;;;;;5009342;28;20442;-56
2023/05/24 11:32:51;;;;;;;13.40;6.33;;;14.10;69.90;;;;;;5012326;28;20455;-61
2023/05/24 11:35:18;;;;;;;12.97;6.40;;;14.10;69.10;;;;;;5015848;28;20187;-61
2023/05/24 11:37:44;;;;;;;26.80;7.30;;;14.10;68.00;;;;;;5015975;28;20180;-62
2023/05/24 11:40:10;;;;;;;164.27;14.23;;;14.00;68.00;;;;;;5017749;28;20465;-63
2023/05/24 11:42:38;;;;;;;226.07;16.40;;;14.10;68.70;;;;;;5023842;28;20805;-61
2023/05/24 11:45:06;;;;;;;20.10;7.30;;;14.10;67.90;;;;;;5008982;28;21439;-60
2023/05/24 11:47:37;;;;;;;9.33;6.00;;;14.20;68.70;;;;;;5012203;28;20469;-60
2023/05/24 11:50:04;;;;;;;12.30;6.70;;;14.30;68.80;;;;;;5012064;28;20480;-61
2023/05/24 11:52:30;;;;;;;15.10;6.67;;;14.40;68.40;;;;;;5015121;28;20451;-57
2023/05/24 11:54:55;;;;;;;10.83;6.10;;;14.50;67.10;;;;;;5016001;28;20430;-60
2023/05/24 11:57:29;;;;;;;21.33;7.00;;;14.50;67.40;;;;;;5016723;28;20180;-60
2023/05/24 11:59:56;;;;;;;19.53;6.17;;;14.60;67.20;;;;;;5020219;28;20294;-60
2023/05/24 12:02:22;;;;;;;38.33;7.37;;;14.70;67.80;;;;;;5019120;28;20527;-60
2023/05/24 12:04:48;;;;;;;58.90;9.20;;;14.80;68.30;;;;;;5018467;28;20950;-57
2023/05/24 12:07:15;;;;;;;25.80;7.37;;;15.00;68.00;;;;;;5019821;28;20226;-60
2023/05/24 12:09:40;;;;;;;40.87;8.03;;;15.00;66.60;;;;;;5022672;28;20176;-60
2023/05/24 12:12:06;;;;;;;15.83;6.60;;;15.10;63.70;;;;;;5017969;28;20446;-59
2023/05/24 13:46:08;;;;;;;17.40;8.00;;;15.40;60.30;;;;;;5028061;28;20598;-63
2023/05/24 13:48:33;;;;;;;16.77;7.40;;;15.40;60.90;;;;;;5026978;28;20573;-62
2023/05/24 13:50:59;;;;;;;13.13;6.70;;;15.30;61.00;;;;;;5030322;28;20457;-63
2023/05/24 13:53:26;;;;;;;13.27;7.53;;;15.30;62.00;;;;;;5037258;28;20217;-62
2023/05/24 13:55:52;;;;;;;12.93;6.80;;;15.30;62.10;;;;;;5025960;28;20237;-61
2023/05/24 13:58:18;;;;;;;20.33;8.47;;;15.30;62.10;;;;;;5023499;28;20456;-62
2023/05/24 14:00:44;;;;;;;14.60;8.10;;;15.20;61.60;;;;;;5027222;28;20656;-64
2023/05/24 14:03:11;;;;;;;22.80;7.87;;;15.20;62.00;;;;;;5023456;28;20711;-64
2023/05/24 14:05:39;;;;;;;11.80;6.87;;;15.20;61.90;;;;;;5026069;28;20520;-62
2023/05/24 14:08:05;;;;;;;17.57;7.40;;;15.10;62.50;;;;;;5034194;28;20466;-62
2023/05/24 14:10:35;;;;;;;15.43;6.80;;;15.00;62.40;;;;;;5029448;28;20437;-62